createdAt,value
2018-11-20T00:01:09.783Z,55.73
2018-11-20T00:02:35.998Z,55.75
2018-11-20T00:03:55.708Z,55.75
2018-11-20T00:05:15.613Z,55.81
2018-11-20T00:06:28.184Z,55.82
2018-11-20T00:07:49.136Z,55.86
2018-11-20T00:09:22.157Z,55.81
2018-11-20T00:10:41.872Z,55.81
2018-11-20T00:11:52.236Z,55.78
2018-11-20T00:13:04.266Z,55.74
2018-11-20T00:14:33.806Z,55.79
2018-11-20T00:15:57.668Z,55.75
2018-11-20T00:17:17.046Z,55.81
2018-11-20T00:18:30.348Z,55.75
2018-11-20T00:19:43.284Z,55.72
2018-11-20T00:20:57.420Z,55.67
2018-11-20T00:22:27.470Z,55.75
2018-11-20T00:23:55.875Z,55.81
2018-11-20T00:25:17.982Z,55.78
2018-11-20T00:26:44.754Z,55.72
2018-11-20T00:28:05.718Z,55.69
2018-11-20T00:29:21.329Z,55.61
2018-11-20T00:30:41.166Z,55.62
2018-11-20T00:32:17.568Z,55.66
2018-11-20T00:33:37.575Z,55.67
2018-11-20T00:34:50.740Z,55.77
2018-11-20T00:36:19.966Z,55.64
2018-11-20T00:37:45.341Z,55.70
2018-11-20T00:39:15.356Z,55.70
2018-11-20T00:40:36.455Z,55.69
2018-11-20T00:42:00.414Z,55.52
2018-11-20T00:43:21.382Z,55.69
2018-11-20T00:44:45.106Z,55.69
2018-11-20T00:46:04.364Z,55.63
2018-11-20T00:47:25.346Z,55.63
2018-11-20T00:48:47.452Z,55.61
2018-11-20T00:50:14.269Z,55.63
2018-11-20T00:51:38.540Z,55.59
2018-11-20T00:52:55.815Z,55.64
2018-11-20T00:54:16.764Z,55.64
2018-11-20T00:55:31.208Z,55.56
2018-11-20T00:56:48.430Z,55.60
2018-11-20T00:58:27.534Z,55.64
2018-11-20T00:59:48.492Z,55.55
2018-11-20T01:00:58.393Z,55.62
2018-11-20T01:02:20.518Z,55.56
2018-11-20T01:03:44.259Z,55.58
2018-11-20T01:05:14.248Z,55.51
2018-11-20T01:06:35.178Z,55.59
2018-11-20T01:08:02.411Z,55.59
2018-11-20T01:09:22.077Z,55.56
2018-11-20T01:10:49.092Z,55.57
2018-11-20T01:12:10.072Z,55.55
2018-11-20T01:13:29.749Z,55.51
2018-11-20T01:14:50.670Z,55.46
2018-11-20T01:16:02.203Z,55.56
2018-11-20T01:17:11.615Z,55.46
2018-11-20T01:18:39.577Z,55.56
2018-11-20T01:19:58.148Z,55.56
2018-11-20T01:21:19.091Z,55.50
2018-11-20T01:22:38.501Z,55.51
2018-11-20T01:23:59.464Z,55.50
2018-11-20T01:25:23.459Z,55.49
2018-11-20T01:26:51.489Z,55.55
2018-11-20T01:28:24.746Z,55.50
2018-11-20T01:29:44.399Z,55.52
2018-11-20T01:31:20.646Z,55.58
2018-11-20T01:32:31.479Z,55.46
2018-11-20T01:33:55.469Z,55.38
2018-11-20T01:35:15.304Z,55.44
2018-11-20T01:36:35.725Z,55.39
2018-11-20T01:37:50.968Z,55.37
2018-11-20T01:39:10.759Z,55.36
2018-11-20T01:40:24.049Z,55.43
2018-11-20T01:41:36.683Z,55.40
2018-11-20T01:42:56.215Z,55.36
2018-11-20T01:44:17.845Z,55.37
2018-11-20T01:45:31.110Z,55.43
2018-11-20T01:46:57.875Z,55.47
2018-11-20T01:48:18.609Z,55.38
2018-11-20T01:49:48.587Z,55.37
2018-11-20T01:51:13.726Z,55.45
2018-11-20T01:52:33.279Z,55.34
2018-11-20T01:53:57.258Z,55.36
2018-11-20T01:55:19.297Z,55.47
2018-11-20T01:56:40.258Z,55.27
2018-11-20T01:58:00.041Z,55.31
2018-11-20T01:59:13.641Z,55.24
2018-11-20T02:00:33.463Z,55.31
2018-11-20T02:01:56.551Z,55.24
2018-11-20T02:03:32.804Z,55.34
2018-11-20T02:05:02.805Z,55.38
2018-11-20T02:06:32.885Z,55.36
2018-11-20T02:07:52.815Z,55.37
2018-11-20T02:09:14.233Z,55.38
2018-11-20T02:10:44.043Z,55.33
2018-11-20T02:12:03.811Z,55.30
2018-11-20T02:13:43.048Z,55.29
2018-11-20T02:15:06.603Z,55.31
2018-11-20T02:16:24.215Z,55.25
2018-11-20T02:17:57.048Z,55.25
2018-11-20T02:19:20.719Z,55.21
2018-11-20T02:20:53.385Z,55.30
2018-11-20T02:22:20.477Z,55.29
2018-11-20T02:23:47.021Z,55.27
2018-11-20T02:25:10.583Z,55.21
2018-11-20T02:26:31.540Z,55.29
2018-11-20T02:27:53.624Z,55.17
2018-11-20T02:29:13.536Z,55.22
2018-11-20T02:30:37.201Z,55.24
2018-11-20T02:32:02.504Z,55.07
2018-11-20T02:33:23.482Z,55.11
2018-11-20T02:34:41.922Z,54.98
2018-11-20T02:36:07.952Z,55.10
2018-11-20T02:37:29.050Z,55.09
2018-11-20T02:38:48.844Z,55.16
2018-11-20T02:40:03.887Z,55.17
2018-11-20T02:41:17.190Z,55.17
2018-11-20T02:42:36.690Z,55.10
2018-11-20T02:43:59.320Z,55.15
2018-11-20T02:45:32.382Z,55.12
2018-11-20T02:46:46.486Z,55.07
2018-11-20T02:48:07.446Z,55.11
2018-11-20T02:49:26.854Z,55.09
2018-11-20T02:51:00.975Z,55.10
2018-11-20T02:52:24.768Z,55.06
2018-11-20T02:53:54.372Z,54.93
2018-11-20T02:55:33.757Z,55.02
2018-11-20T02:56:54.274Z,55.03
2018-11-20T02:58:11.388Z,55.09
2018-11-20T02:59:44.278Z,55.05
2018-11-20T03:01:13.873Z,55.05
2018-11-20T03:02:45.912Z,55.11
2018-11-20T03:04:02.213Z,54.96
2018-11-20T03:05:23.222Z,55.11
2018-11-20T03:06:52.928Z,55.13
2018-11-20T03:08:12.262Z,55.09
2018-11-20T03:09:39.249Z,55.01
2018-11-20T03:10:48.004Z,55.06
2018-11-20T03:12:07.340Z,54.99
2018-11-20T03:13:26.926Z,55.02
2018-11-20T03:14:59.815Z,54.97
2018-11-20T03:16:19.295Z,54.96
2018-11-20T03:17:32.312Z,54.95
2018-11-20T03:18:51.912Z,55.11
2018-11-20T03:20:16.540Z,55.01
2018-11-20T03:21:33.939Z,55.06
2018-11-20T03:22:59.556Z,54.97
2018-11-20T03:24:24.555Z,54.97
2018-11-20T03:25:38.890Z,55.02
2018-11-20T03:27:09.004Z,55.04
2018-11-20T03:28:23.064Z,54.94
2018-11-20T03:29:52.784Z,54.87
2018-11-20T03:31:12.037Z,54.93
2018-11-20T03:32:35.959Z,54.96
2018-11-20T03:34:00.589Z,54.95
2018-11-20T03:35:14.701Z,54.90
2018-11-20T03:36:49.305Z,55.01
2018-11-20T03:38:15.866Z,54.96
2018-11-20T03:39:36.845Z,54.99
2018-11-20T03:40:58.507Z,54.98
2018-11-20T03:42:36.483Z,54.92
2018-11-20T03:43:53.256Z,55.01
2018-11-20T03:45:12.941Z,54.87
2018-11-20T03:46:37.484Z,55.03
2018-11-20T03:48:08.525Z,55.00
2018-11-20T03:49:47.325Z,54.95
2018-11-20T03:51:07.128Z,54.94
2018-11-20T03:52:30.929Z,54.99
2018-11-20T03:53:42.253Z,54.92
2018-11-20T03:55:02.001Z,54.83
2018-11-20T03:56:32.101Z,54.85
2018-11-20T03:57:43.509Z,54.85
2018-11-20T03:59:13.397Z,54.89
2018-11-20T04:00:26.223Z,54.81
2018-11-20T04:01:45.927Z,54.81
2018-11-20T04:03:05.382Z,54.74
2018-11-20T04:04:17.548Z,54.83
2018-11-20T04:05:50.526Z,54.79
2018-11-20T04:07:16.238Z,54.91
2018-11-20T04:08:35.653Z,54.91
2018-11-20T04:09:54.875Z,54.83
2018-11-20T04:11:15.823Z,54.82
2018-11-20T04:12:35.465Z,54.90
2018-11-20T04:13:55.421Z,54.88
2018-11-20T04:15:19.013Z,54.87
2018-11-20T04:16:38.682Z,54.78
2018-11-20T04:17:58.128Z,54.77
2018-11-20T04:19:31.321Z,54.79
2018-11-20T04:20:59.227Z,54.82
2018-11-20T04:22:23.012Z,54.82
2018-11-20T04:23:51.209Z,54.80
2018-11-20T04:25:12.168Z,54.88
2018-11-20T04:26:39.643Z,54.92
2018-11-20T04:28:06.655Z,54.88
2018-11-20T04:29:26.493Z,54.77
2018-11-20T04:30:40.567Z,54.80
2018-11-20T04:31:51.221Z,54.81
2018-11-20T04:33:15.803Z,54.80
2018-11-20T04:34:35.311Z,54.84
2018-11-20T04:35:48.603Z,54.83
2018-11-20T04:37:28.433Z,54.79
2018-11-20T04:38:38.353Z,54.86
2018-11-20T04:40:05.925Z,54.79
2018-11-20T04:41:17.275Z,54.80
2018-11-20T04:42:53.038Z,54.74
2018-11-20T04:44:12.249Z,54.73
2018-11-20T04:45:31.779Z,54.81
2018-11-20T04:46:49.176Z,54.58
2018-11-20T04:48:11.092Z,54.45
2018-11-20T04:49:50.088Z,54.57
2018-11-20T04:51:09.701Z,54.46
2018-11-20T04:52:21.176Z,54.57
2018-11-20T04:53:48.297Z,54.57
2018-11-20T04:55:07.975Z,54.62
2018-11-20T04:56:31.851Z,54.73
2018-11-20T04:57:58.945Z,54.67
2018-11-20T04:59:23.861Z,54.67
2018-11-20T05:00:43.158Z,54.73
2018-11-20T05:02:02.405Z,54.79
2018-11-20T05:03:23.892Z,54.80
2018-11-20T05:04:46.007Z,54.72
2018-11-20T05:05:59.955Z,54.85
2018-11-20T05:07:19.758Z,54.83
2018-11-20T05:08:35.581Z,54.88
2018-11-20T05:09:47.062Z,55.00
2018-11-20T05:11:14.148Z,55.12
2018-11-20T05:12:33.937Z,55.03
2018-11-20T05:13:53.614Z,55.83
2018-11-20T05:15:23.684Z,56.95
2018-11-20T05:16:51.731Z,56.17
2018-11-20T05:18:23.918Z,57.61
2018-11-20T05:19:43.465Z,58.54
2018-11-20T05:21:09.379Z,57.79
2018-11-20T05:22:29.240Z,58.08
2018-11-20T05:23:49.176Z,57.90
2018-11-20T05:25:00.064Z,58.83
2018-11-20T05:26:18.205Z,59.14
2018-11-20T05:27:45.074Z,58.31
2018-11-20T05:29:20.270Z,58.79
2018-11-20T05:30:37.622Z,58.33
2018-11-20T05:31:57.451Z,58.77
2018-11-20T05:33:19.508Z,58.46
2018-11-20T05:34:38.038Z,58.72
2018-11-20T05:35:50.628Z,58.65
2018-11-20T05:37:10.201Z,58.98
2018-11-20T05:38:33.984Z,58.59
2018-11-20T05:39:54.371Z,58.42
2018-11-20T05:41:13.995Z,58.55
2018-11-20T05:42:33.906Z,58.55
2018-11-20T05:44:06.996Z,58.52
2018-11-20T05:45:30.825Z,58.37
2018-11-20T05:46:50.998Z,58.26
2018-11-20T05:48:26.992Z,58.44
2018-11-20T05:49:58.396Z,58.38
2018-11-20T05:51:18.414Z,58.10
2018-11-20T05:52:39.988Z,58.43
2018-11-20T05:53:59.618Z,57.91
2018-11-20T05:55:23.721Z,58.23
2018-11-20T05:56:46.079Z,58.22
2018-11-20T05:57:56.497Z,57.93
2018-11-20T05:59:16.342Z,58.00
2018-11-20T06:00:35.960Z,57.93
2018-11-20T06:01:49.762Z,58.04
2018-11-20T06:03:12.949Z,57.89
2018-11-20T06:04:42.838Z,57.98
2018-11-20T06:06:09.932Z,57.87
2018-11-20T06:07:24.939Z,57.85
2018-11-20T06:08:45.138Z,57.84
2018-11-20T06:10:00.891Z,57.66
2018-11-20T06:11:21.007Z,57.78
2018-11-20T06:12:40.655Z,57.69
2018-11-20T06:14:10.822Z,57.70
2018-11-20T06:15:41.376Z,57.70
2018-11-20T06:16:59.396Z,57.68
2018-11-20T06:18:19.076Z,57.66
2018-11-20T06:19:39.032Z,57.50
2018-11-20T06:20:59.984Z,57.47
2018-11-20T06:22:19.900Z,57.56
2018-11-20T06:23:40.858Z,57.50
2018-11-20T06:25:01.836Z,57.43
2018-11-20T06:26:26.966Z,57.45
2018-11-20T06:27:47.297Z,57.33
2018-11-20T06:29:14.073Z,57.48
2018-11-20T06:30:34.952Z,57.43
2018-11-20T06:31:53.889Z,57.39
2018-11-20T06:33:13.439Z,57.33
2018-11-20T06:34:33.164Z,57.38
2018-11-20T06:35:52.514Z,57.22
2018-11-20T06:37:04.145Z,57.15
2018-11-20T06:38:23.573Z,57.31
2018-11-20T06:39:40.277Z,57.23
2018-11-20T06:41:13.458Z,57.15
2018-11-20T06:42:34.344Z,57.07
2018-11-20T06:44:10.224Z,57.16
2018-11-20T06:45:29.806Z,56.95
2018-11-20T06:46:58.829Z,57.05
2018-11-20T06:48:31.877Z,56.94
2018-11-20T06:49:45.896Z,56.90
2018-11-20T06:51:02.705Z,56.92
2018-11-20T06:52:22.032Z,56.94
2018-11-20T06:53:45.636Z,56.98
2018-11-20T06:55:15.656Z,56.91
2018-11-20T06:56:24.937Z,56.90
2018-11-20T06:57:55.848Z,56.90
2018-11-20T06:59:29.683Z,56.77
2018-11-20T07:00:49.334Z,56.80
2018-11-20T07:02:13.279Z,56.77
2018-11-20T07:03:31.474Z,56.77
2018-11-20T07:04:59.511Z,56.75
2018-11-20T07:06:19.528Z,56.67
2018-11-20T07:07:39.370Z,56.71
2018-11-20T07:09:03.054Z,56.69
2018-11-20T07:10:17.496Z,56.64
2018-11-20T07:11:46.372Z,56.68
2018-11-20T07:13:10.217Z,56.61
2018-11-20T07:14:30.227Z,56.57
2018-11-20T07:15:50.093Z,56.58
2018-11-20T07:17:08.504Z,56.54
2018-11-20T07:18:47.878Z,56.50
2018-11-20T07:20:08.861Z,56.45
2018-11-20T07:21:21.959Z,56.48
2018-11-20T07:22:31.094Z,56.44
2018-11-20T07:24:03.851Z,56.45
2018-11-20T07:25:23.969Z,56.37
2018-11-20T07:26:43.805Z,56.36
2018-11-20T07:28:16.842Z,56.32
2018-11-20T07:29:56.084Z,56.33
2018-11-20T07:31:35.595Z,56.30
2018-11-20T07:32:55.213Z,56.26
2018-11-20T07:34:14.775Z,56.27
2018-11-20T07:35:41.513Z,56.22
2018-11-20T07:37:02.606Z,56.20
2018-11-20T07:38:28.463Z,56.19
2018-11-20T07:39:55.376Z,56.21
2018-11-20T07:41:25.167Z,56.16
2018-11-20T07:42:52.505Z,56.06
2018-11-20T07:44:16.644Z,56.08
2018-11-20T07:45:41.157Z,56.07
2018-11-20T07:47:06.471Z,56.09
2018-11-20T07:48:39.689Z,56.06
2018-11-20T07:50:03.447Z,56.04
2018-11-20T07:51:31.477Z,56.06
2018-11-20T07:52:53.580Z,56.01
2018-11-20T07:54:26.777Z,55.97
2018-11-20T07:55:40.805Z,56.02
2018-11-20T07:57:01.768Z,55.96
2018-11-20T07:58:21.895Z,55.98
2018-11-20T07:59:42.837Z,55.90
2018-11-20T08:01:12.593Z,55.95
2018-11-20T08:02:22.258Z,55.88
2018-11-20T08:03:43.198Z,55.89
2018-11-20T08:05:04.189Z,55.89
2018-11-20T08:06:27.928Z,55.93
2018-11-20T08:07:47.909Z,55.91
2018-11-20T08:09:16.238Z,55.90
2018-11-20T08:10:33.884Z,55.84
2018-11-20T08:12:01.198Z,55.90
2018-11-20T08:13:34.411Z,55.91
2018-11-20T08:14:54.325Z,55.86
2018-11-20T08:16:24.361Z,55.80
2018-11-20T08:17:48.331Z,55.80
2018-11-20T08:19:21.512Z,55.80
2018-11-20T08:20:46.717Z,55.76
2018-11-20T08:22:06.329Z,55.76
2018-11-20T08:23:21.962Z,55.69
2018-11-20T08:24:34.973Z,55.70
2018-11-20T08:25:54.855Z,55.74
2018-11-20T08:27:25.085Z,55.79
2018-11-20T08:28:55.955Z,55.72
2018-11-20T08:30:32.177Z,55.69
2018-11-20T08:32:02.584Z,55.65
2018-11-20T08:33:16.004Z,55.64
2018-11-20T08:34:35.851Z,55.67
2018-11-20T08:36:08.020Z,55.63
2018-11-20T08:37:27.985Z,55.58
2018-11-20T08:38:55.964Z,55.61
2018-11-20T08:40:34.733Z,55.55
2018-11-20T08:42:10.734Z,55.51
2018-11-20T08:43:34.232Z,55.53
2018-11-20T08:44:57.855Z,55.49
2018-11-20T08:46:17.623Z,55.43
2018-11-20T08:47:37.634Z,55.46
2018-11-20T08:48:56.324Z,55.43
2018-11-20T08:50:33.127Z,55.46
2018-11-20T08:51:52.890Z,55.44
2018-11-20T08:53:03.737Z,55.37
2018-11-20T08:54:16.978Z,55.39
2018-11-20T08:55:37.152Z,55.40
2018-11-20T08:56:55.470Z,55.40
2018-11-20T08:58:19.111Z,55.44
2018-11-20T08:59:42.470Z,55.29
2018-11-20T09:01:01.895Z,56.40
2018-11-20T09:02:25.529Z,56.96
2018-11-20T09:04:00.149Z,56.60
2018-11-20T09:05:19.628Z,56.57
2018-11-20T09:06:39.358Z,56.29
2018-11-20T09:08:18.427Z,56.15
2018-11-20T09:09:38.454Z,56.24
2018-11-20T09:11:08.645Z,56.15
2018-11-20T09:12:21.786Z,56.16
2018-11-20T09:13:41.584Z,56.07
2018-11-20T09:15:01.122Z,56.09
2018-11-20T09:16:25.552Z,56.15
2018-11-20T09:17:44.968Z,56.44
2018-11-20T09:19:16.709Z,56.95
2018-11-20T09:20:36.093Z,57.43
2018-11-20T09:21:55.419Z,57.05
2018-11-20T09:23:16.435Z,57.41
2018-11-20T09:24:43.881Z,56.87
2018-11-20T09:26:03.283Z,57.14
2018-11-20T09:27:22.828Z,57.53
2018-11-20T09:28:36.976Z,57.47
2018-11-20T09:29:53.341Z,57.23
2018-11-20T09:31:21.100Z,57.49
2018-11-20T09:32:44.901Z,57.49
2018-11-20T09:34:12.558Z,57.88
2018-11-20T09:35:32.501Z,57.24
2018-11-20T09:36:51.878Z,57.37
2018-11-20T09:38:05.436Z,56.96
2018-11-20T09:39:32.225Z,57.22
2018-11-20T09:40:48.951Z,57.23
2018-11-20T09:42:25.192Z,57.19
2018-11-20T09:43:46.378Z,57.23
2018-11-20T09:45:14.560Z,57.15
2018-11-20T09:46:36.389Z,57.15
2018-11-20T09:48:03.806Z,57.14
2018-11-20T09:49:25.872Z,57.15
2018-11-20T09:50:54.813Z,57.02
2018-11-20T09:52:30.711Z,57.01
2018-11-20T09:53:45.700Z,57.12
2018-11-20T09:55:12.954Z,57.12
2018-11-20T09:56:39.438Z,57.12
2018-11-20T09:57:58.868Z,57.05
2018-11-20T09:59:22.422Z,56.91
2018-11-20T10:00:50.470Z,57.04
2018-11-20T10:02:10.044Z,56.86
2018-11-20T10:03:34.348Z,57.01
2018-11-20T10:05:04.573Z,56.98
2018-11-20T10:06:31.714Z,57.09
2018-11-20T10:07:59.569Z,57.03
2018-11-20T10:09:29.609Z,56.93
2018-11-20T10:11:11.657Z,56.93
2018-11-20T10:12:35.436Z,57.01
2018-11-20T10:14:11.711Z,56.98
2018-11-20T10:15:46.177Z,57.16
2018-11-20T10:17:02.240Z,57.01
2018-11-20T10:18:30.153Z,56.90
2018-11-20T10:19:48.339Z,57.11
2018-11-20T10:21:08.055Z,56.92
2018-11-20T10:22:27.617Z,57.20
2018-11-20T10:23:47.403Z,57.24
2018-11-20T10:25:17.296Z,57.15
2018-11-20T10:26:50.091Z,57.17
2018-11-20T10:28:10.039Z,57.14
2018-11-20T10:29:28.255Z,56.91
2018-11-20T10:30:47.879Z,57.23
2018-11-20T10:32:07.473Z,57.15
2018-11-20T10:33:46.869Z,57.24
2018-11-20T10:35:06.859Z,57.16
2018-11-20T10:36:28.176Z,57.05
2018-11-20T10:37:39.869Z,57.23
2018-11-20T10:39:12.893Z,57.14
2018-11-20T10:40:42.243Z,56.93
2018-11-20T10:42:02.180Z,56.97
2018-11-20T10:43:22.088Z,56.84
2018-11-20T10:44:49.264Z,56.88
2018-11-20T10:46:10.140Z,56.77
2018-11-20T10:47:49.209Z,56.78
2018-11-20T10:49:16.226Z,56.80
2018-11-20T10:50:36.024Z,56.74
2018-11-20T10:51:56.037Z,56.71
2018-11-20T10:53:11.195Z,56.66
2018-11-20T10:54:41.054Z,56.48
2018-11-20T10:56:00.402Z,56.56
2018-11-20T10:57:22.329Z,56.51
2018-11-20T10:58:55.460Z,56.55
2018-11-20T11:00:15.459Z,56.53
2018-11-20T11:01:42.257Z,56.39
2018-11-20T11:03:02.037Z,56.44
2018-11-20T11:04:23.076Z,56.45
2018-11-20T11:05:46.969Z,56.47
2018-11-20T11:07:26.128Z,56.15
2018-11-20T11:08:45.987Z,56.02
2018-11-20T11:09:51.447Z,56.10
2018-11-20T11:11:07.999Z,56.19
2018-11-20T11:12:35.055Z,56.23
2018-11-20T11:13:58.875Z,56.35
2018-11-20T11:15:18.641Z,56.36
2018-11-20T11:16:40.334Z,56.44
2018-11-20T11:18:07.065Z,56.41
2018-11-20T11:19:37.521Z,56.37
2018-11-20T11:20:58.030Z,56.36
2018-11-20T11:22:17.978Z,56.38
2018-11-20T11:23:48.426Z,56.34
2018-11-20T11:25:12.365Z,56.39
2018-11-20T11:26:52.892Z,56.45
2018-11-20T11:28:25.868Z,56.41
2018-11-20T11:29:52.700Z,56.33
2018-11-20T11:31:16.754Z,56.32
2018-11-20T11:32:53.187Z,56.27
2018-11-20T11:34:13.250Z,56.40
2018-11-20T11:35:52.536Z,56.33
2018-11-20T11:37:16.207Z,56.25
2018-11-20T11:38:46.117Z,56.26
2018-11-20T11:40:06.821Z,56.25
2018-11-20T11:41:26.432Z,56.23
2018-11-20T11:42:50.446Z,56.22
2018-11-20T11:44:12.801Z,56.17
2018-11-20T11:45:36.333Z,56.18
2018-11-20T11:46:49.266Z,56.19
2018-11-20T11:48:10.234Z,56.14
2018-11-20T11:49:34.105Z,56.11
2018-11-20T11:51:03.587Z,56.11
2018-11-20T11:52:25.440Z,56.07
2018-11-20T11:53:43.921Z,56.03
2018-11-20T11:55:04.947Z,56.15
2018-11-20T11:56:24.881Z,56.03
2018-11-20T11:57:51.901Z,56.01
2018-11-20T11:59:30.962Z,56.00
2018-11-20T12:00:53.137Z,55.97
2018-11-20T12:03:37.615Z,56.06
2018-11-20T12:05:01.766Z,55.99
2018-11-20T12:06:21.370Z,56.03
2018-11-20T12:07:41.012Z,55.95
2018-11-20T12:08:55.396Z,56.02
2018-11-20T12:10:36.109Z,55.93
2018-11-20T12:11:51.123Z,56.01
2018-11-20T12:13:03.124Z,55.94
2018-11-20T12:14:27.037Z,55.93
2018-11-20T12:15:46.935Z,55.94
2018-11-20T12:17:26.357Z,55.89
2018-11-20T12:18:50.527Z,55.88
2018-11-20T12:20:26.693Z,55.93
2018-11-20T12:21:46.512Z,55.89
2018-11-20T12:23:19.533Z,55.86
2018-11-20T12:24:39.456Z,55.79
2018-11-20T12:26:11.970Z,55.95
2018-11-20T12:27:34.359Z,55.82
2018-11-20T12:28:47.181Z,55.71
2018-11-20T12:30:02.455Z,55.82
2018-11-20T12:31:43.039Z,55.73
2018-11-20T12:33:15.159Z,55.79
2018-11-20T12:34:32.451Z,55.69
2018-11-20T12:35:52.090Z,55.76
2018-11-20T12:37:06.494Z,55.76
2018-11-20T12:38:29.862Z,55.83
2018-11-20T12:39:40.811Z,55.84
2018-11-20T12:40:58.695Z,55.82
2018-11-20T12:42:25.161Z,55.70
2018-11-20T12:43:46.125Z,55.85
2018-11-20T12:45:25.427Z,55.78
2018-11-20T12:46:58.761Z,55.83
2018-11-20T12:48:18.505Z,55.82
2018-11-20T12:49:41.998Z,55.57
2018-11-20T12:51:05.476Z,55.67
2018-11-20T12:52:16.741Z,55.64
2018-11-20T12:53:40.727Z,55.64
2018-11-20T12:54:58.819Z,55.66
2018-11-20T12:56:20.575Z,55.69
2018-11-20T12:57:44.637Z,55.63
2018-11-20T12:59:23.552Z,55.62
2018-11-20T13:00:43.396Z,55.61
2018-11-20T13:02:15.209Z,55.59
2018-11-20T13:03:35.225Z,55.62
2018-11-20T13:04:55.205Z,55.59
2018-11-20T13:06:21.513Z,55.64
2018-11-20T13:07:41.384Z,55.61
2018-11-20T13:09:07.305Z,55.65
2018-11-20T13:10:26.402Z,55.52
2018-11-20T13:11:46.191Z,55.52
2018-11-20T13:13:06.021Z,55.57
2018-11-20T13:14:38.885Z,55.56
2018-11-20T13:15:57.444Z,55.55
2018-11-20T13:17:11.271Z,55.54
2018-11-20T13:18:54.169Z,55.57
2018-11-20T13:19:52.737Z,55.52
2018-11-20T13:21:31.968Z,55.47
2018-11-20T13:22:51.217Z,55.49
2018-11-20T13:24:17.781Z,55.58
2018-11-20T13:25:37.495Z,55.56
2018-11-20T13:27:04.507Z,55.37
2018-11-20T13:28:23.852Z,55.42
2018-11-20T13:29:50.901Z,55.39
2018-11-20T13:31:14.105Z,55.49
2018-11-20T13:32:33.889Z,55.45
2018-11-20T13:34:13.085Z,55.42
2018-11-20T13:35:33.009Z,55.44
2018-11-20T13:36:47.217Z,55.45
2018-11-20T13:38:08.393Z,55.45
2018-11-20T13:39:28.219Z,55.38
2018-11-20T13:40:46.143Z,55.38
2018-11-20T13:42:05.823Z,55.32
2018-11-20T13:43:14.626Z,55.43
2018-11-20T13:44:34.563Z,55.88
2018-11-20T13:45:54.141Z,55.63
2018-11-20T13:47:27.195Z,55.31
2018-11-20T13:48:47.363Z,55.36
2018-11-20T13:50:11.863Z,55.39
2018-11-20T13:51:31.840Z,55.51
2018-11-20T13:52:51.964Z,55.48
2018-11-20T13:54:11.842Z,55.36
2018-11-20T13:55:31.942Z,55.55
2018-11-20T13:56:51.240Z,55.50
2018-11-20T13:58:15.875Z,55.54
2018-11-20T13:59:46.020Z,55.28
2018-11-20T14:01:10.914Z,55.37
2018-11-20T14:02:36.998Z,55.49
2018-11-20T14:03:56.647Z,55.36
2018-11-20T14:05:31.429Z,55.50
2018-11-20T14:07:03.793Z,55.50
2018-11-20T14:08:17.829Z,55.24
2018-11-20T14:09:34.127Z,55.50
2018-11-20T14:11:13.292Z,55.49
2018-11-20T14:12:37.467Z,55.46
2018-11-20T14:14:01.320Z,55.27
2018-11-20T14:15:21.314Z,55.28
2018-11-20T14:16:48.542Z,55.37
2018-11-20T14:18:12.290Z,55.27
2018-11-20T14:19:42.460Z,55.13
2018-11-20T14:21:17.716Z,55.34
2018-11-20T14:22:38.666Z,55.27
2018-11-20T14:24:08.652Z,55.28
2018-11-20T14:25:27.828Z,55.37
2018-11-20T14:26:48.798Z,55.19
2018-11-20T14:28:15.929Z,55.37
2018-11-20T14:29:35.901Z,55.33
2018-11-20T14:30:56.385Z,55.30
2018-11-20T14:32:29.646Z,55.23
2018-11-20T14:34:01.256Z,55.23
2018-11-20T14:35:20.989Z,55.40
2018-11-20T14:36:47.750Z,55.27
2018-11-20T14:38:17.605Z,55.30
2018-11-20T14:39:31.362Z,55.24
2018-11-20T14:40:55.076Z,55.28
2018-11-20T14:42:15.122Z,55.25
2018-11-20T14:43:31.410Z,55.25
2018-11-20T14:44:58.630Z,55.28
2018-11-20T14:46:17.809Z,55.22
2018-11-20T14:47:37.746Z,55.35
2018-11-20T14:48:57.291Z,55.18
2018-11-20T14:50:11.454Z,55.24
2018-11-20T14:51:31.043Z,55.17
2018-11-20T14:52:51.825Z,55.30
2018-11-20T14:54:16.063Z,55.36
2018-11-20T14:55:55.316Z,55.17
2018-11-20T14:57:19.378Z,55.27
2018-11-20T14:58:27.383Z,55.19
2018-11-20T14:59:54.500Z,55.26
2018-11-20T15:01:16.351Z,55.24
2018-11-20T15:02:36.276Z,55.12
2018-11-20T15:03:56.146Z,55.12
2018-11-20T15:05:29.382Z,55.11
2018-11-20T15:06:49.384Z,55.17
2018-11-20T15:08:28.507Z,55.16
2018-11-20T15:09:48.434Z,55.16
2018-11-20T15:11:16.844Z,55.12
2018-11-20T15:12:41.727Z,54.92
2018-11-20T15:14:01.413Z,55.12
2018-11-20T15:15:21.373Z,54.92
2018-11-20T15:16:40.989Z,57.49
2018-11-20T15:18:01.452Z,55.83
2018-11-20T15:19:22.400Z,57.06
2018-11-20T15:20:58.614Z,57.58
2018-11-20T15:22:28.578Z,56.51
2018-11-20T15:23:45.797Z,57.39
2018-11-20T15:25:07.096Z,56.58
2018-11-20T15:26:27.018Z,56.92
2018-11-20T15:27:57.082Z,56.79
2018-11-20T15:29:07.649Z,56.99
2018-11-20T15:30:28.588Z,56.75
2018-11-20T15:31:51.474Z,57.12
2018-11-20T15:33:12.441Z,56.77
2018-11-20T15:34:45.290Z,56.25
2018-11-20T15:36:14.188Z,56.67
2018-11-20T15:37:37.903Z,56.21
2018-11-20T15:39:10.983Z,56.32
2018-11-20T15:40:37.898Z,56.37
2018-11-20T15:42:12.036Z,56.21
2018-11-20T15:43:52.373Z,55.97
2018-11-20T15:45:03.222Z,56.07
2018-11-20T15:46:23.103Z,56.04
2018-11-20T15:47:52.906Z,55.98
2018-11-20T15:49:12.503Z,55.69
2018-11-20T15:50:33.472Z,56.12
2018-11-20T15:51:53.157Z,55.99
2018-11-20T15:53:26.124Z,56.08
2018-11-20T15:54:45.612Z,55.83
2018-11-20T15:56:06.573Z,55.88
2018-11-20T15:57:39.635Z,55.89
2018-11-20T15:58:59.074Z,55.77
2018-11-20T16:00:17.072Z,55.41
2018-11-20T16:01:40.947Z,55.54
2018-11-20T16:03:05.103Z,55.57
2018-11-20T16:04:25.816Z,55.89
2018-11-20T16:05:56.322Z,55.43
2018-11-20T16:07:16.181Z,55.53
2018-11-20T16:08:36.694Z,56.04
2018-11-20T16:10:02.177Z,56.25
2018-11-20T16:11:38.411Z,56.18
2018-11-20T16:12:47.447Z,56.30
2018-11-20T16:14:08.413Z,56.27
2018-11-20T16:15:28.450Z,56.27
2018-11-20T16:16:49.404Z,56.47
2018-11-20T16:18:08.624Z,56.34
2018-11-20T16:19:43.591Z,56.27
2018-11-20T16:21:16.337Z,56.35
2018-11-20T16:22:43.941Z,56.19
2018-11-20T16:24:03.643Z,56.10
2018-11-20T16:25:23.577Z,56.21
2018-11-20T16:26:43.235Z,56.09
2018-11-20T16:28:16.104Z,56.07
2018-11-20T16:29:40.188Z,56.03
2018-11-20T16:30:57.032Z,56.25
2018-11-20T16:32:31.205Z,56.07
2018-11-20T16:33:50.903Z,56.00
2018-11-20T16:35:10.444Z,55.97
2018-11-20T16:36:40.692Z,56.03
2018-11-20T16:38:15.952Z,56.02
2018-11-20T16:39:37.561Z,56.05
2018-11-20T16:40:57.014Z,56.02
2018-11-20T16:42:17.963Z,56.05
2018-11-20T16:43:45.786Z,55.96
2018-11-20T16:45:08.555Z,55.98
2018-11-20T16:46:35.405Z,55.90
2018-11-20T16:48:05.387Z,55.79
2018-11-20T16:49:19.031Z,55.80
2018-11-20T16:50:38.804Z,55.74
2018-11-20T16:51:58.375Z,55.64
2018-11-20T16:53:18.208Z,55.77
2018-11-20T16:54:37.743Z,55.79
2018-11-20T16:55:54.933Z,55.73
2018-11-20T16:57:18.587Z,55.58
2018-11-20T16:58:42.784Z,55.75
2018-11-20T17:00:02.474Z,55.78
2018-11-20T17:01:22.075Z,55.81
2018-11-20T17:02:43.042Z,55.71
2018-11-20T17:04:02.779Z,55.50
2018-11-20T17:05:22.423Z,55.56
2018-11-20T17:06:43.420Z,55.55
2018-11-20T17:08:02.047Z,55.64
2018-11-20T17:09:35.368Z,55.75
2018-11-20T17:10:56.357Z,55.62
2018-11-20T17:12:16.371Z,55.51
2018-11-20T17:13:36.348Z,55.67
2018-11-20T17:14:46.468Z,55.67
2018-11-20T17:16:07.961Z,55.48
2018-11-20T17:17:28.907Z,55.59
2018-11-20T17:18:48.847Z,55.65
2018-11-20T17:20:03.384Z,55.59
2018-11-20T17:21:23.391Z,55.50
2018-11-20T17:22:50.291Z,55.61
2018-11-20T17:24:11.171Z,55.62
2018-11-20T17:25:47.568Z,55.55
2018-11-20T17:27:07.546Z,55.55
2018-11-20T17:28:28.553Z,55.48
2018-11-20T17:29:58.451Z,55.50
2018-11-20T17:31:09.278Z,55.48
2018-11-20T17:32:28.888Z,55.57
2018-11-20T17:33:48.741Z,55.47
2018-11-20T17:35:15.985Z,55.49
2018-11-20T17:36:52.365Z,55.44
2018-11-20T17:38:21.414Z,55.44
2018-11-20T17:39:43.354Z,55.37
2018-11-20T17:41:04.494Z,55.37
2018-11-20T17:42:32.960Z,55.36
2018-11-20T17:43:55.951Z,55.42
2018-11-20T17:45:09.074Z,55.35
2018-11-20T17:46:24.163Z,55.33
2018-11-20T17:47:43.800Z,55.19
2018-11-20T17:49:06.426Z,55.17
2018-11-20T17:50:36.438Z,55.29
2018-11-20T17:52:06.323Z,55.41